sensor_id;sensor_type;location;lat;lon;timestamp;P1;durP1;ratioP1;P2;durP2;ratioP2
69847;SDS011;57143;55.940;37.496;2023-02-01T00:01:04;10.55;;;3.33;;
69847;SDS011;57143;55.940;37.496;2023-02-01T00:03:32;12.50;;;3.95;;
69847;SDS011;57143;55.940;37.496;2023-02-01T00:05:59;11.23;;;4.03;;
69847;SDS011;57143;55.940;37.496;2023-02-01T00:08:27;11.13;;;3.92;;
69847;SDS011;57143;55.940;37.496;2023-02-01T00:10:59;12.07;;;3.47;;
69847;SDS011;57143;55.940;37.496;2023-02-01T00:13:28;12.68;;;3.72;;
69847;SDS011;57143;55.940;37.496;2023-02-01T00:16:01;10.50;;;3.33;;
69847;SDS011;57143;55.940;37.496;2023-02-01T00:18:29;10.27;;;2.90;;
69847;SDS011;57143;55.940;37.496;2023-02-01T00:20:57;13.50;;;4.28;;
69847;SDS011;57143;55.940;37.496;2023-02-01T00:23:24;14.20;;;4.68;;
69847;SDS011;57143;55.940;37.496;2023-02-01T00:25:52;14.50;;;4.60;;
69847;SDS011;57143;55.940;37.496;2023-02-01T00:28:21;12.70;;;4.47;;
69847;SDS011;57143;55.940;37.496;2023-02-01T00:30:55;13.10;;;4.20;;
69847;SDS011;57143;55.940;37.496;2023-02-01T00:33:22;13.25;;;3.92;;
69847;SDS011;57143;55.940;37.496;2023-02-01T00:35:50;13.48;;;4.40;;
69847;SDS011;57143;55.940;37.496;2023-02-01T00:38:17;18.48;;;5.20;;
69847;SDS011;57143;55.940;37.496;2023-02-01T00:40:44;12.90;;;4.70;;
69847;SDS011;57143;55.940;37.496;2023-02-01T00:43:11;15.00;;;5.27;;
69847;SDS011;57143;55.940;37.496;2023-02-01T00:45:39;11.70;;;3.97;;
69847;SDS011;57143;55.940;37.496;2023-02-01T00:48:07;9.27;;;3.10;;
69847;SDS011;57143;55.940;37.496;2023-02-01T00:50:34;14.55;;;4.60;;
69847;SDS011;57143;55.940;37.496;2023-02-01T00:53:01;13.38;;;4.53;;
69847;SDS011;57143;55.940;37.496;2023-02-01T00:55:28;18.97;;;5.67;;
69847;SDS011;57143;55.940;37.496;2023-02-01T00:57:55;16.58;;;5.68;;
69847;SDS011;57143;55.940;37.496;2023-02-01T01:00:22;17.08;;;6.32;;
69847;SDS011;57143;55.940;37.496;2023-02-01T01:02:51;13.27;;;4.05;;
69847;SDS011;57143;55.940;37.496;2023-02-01T01:05:18;15.85;;;5.43;;
69847;SDS011;57143;55.940;37.496;2023-02-01T01:07:45;16.57;;;5.27;;
69847;SDS011;57143;55.940;37.496;2023-02-01T01:10:12;13.48;;;4.45;;
69847;SDS011;57143;55.940;37.496;2023-02-01T01:12:39;18.17;;;5.80;;
69847;SDS011;57143;55.940;37.496;2023-02-01T01:15:07;17.60;;;4.80;;
69847;SDS011;57143;55.940;37.496;2023-02-01T01:17:35;13.13;;;4.63;;
69847;SDS011;57143;55.940;37.496;2023-02-01T01:20:03;16.13;;;5.03;;
69847;SDS011;57143;55.940;37.496;2023-02-01T01:22:31;14.23;;;5.47;;
69847;SDS011;57143;55.940;37.496;2023-02-01T01:24:58;15.50;;;5.28;;
69847;SDS011;57143;55.940;37.496;2023-02-01T01:27:25;14.35;;;4.72;;
69847;SDS011;57143;55.940;37.496;2023-02-01T01:29:52;13.05;;;4.65;;
69847;SDS011;57143;55.940;37.496;2023-02-01T01:32:19;14.00;;;4.73;;
69847;SDS011;57143;55.940;37.496;2023-02-01T01:34:47;14.52;;;4.70;;
69847;SDS011;57143;55.940;37.496;2023-02-01T01:37:15;12.70;;;4.22;;
69847;SDS011;57143;55.940;37.496;2023-02-01T01:39:42;16.88;;;4.25;;
69847;SDS011;57143;55.940;37.496;2023-02-01T01:42:10;16.23;;;5.75;;
69847;SDS011;57143;55.940;37.496;2023-02-01T01:44:56;13.50;;;4.07;;
69847;SDS011;57143;55.940;37.496;2023-02-01T01:47:25;12.20;;;4.32;;
69847;SDS011;57143;55.940;37.496;2023-02-01T01:49:55;15.27;;;4.72;;
69847;SDS011;57143;55.940;37.496;2023-02-01T01:52:24;15.40;;;3.95;;
69847;SDS011;57143;55.940;37.496;2023-02-01T01:54:51;13.75;;;4.72;;
69847;SDS011;57143;55.940;37.496;2023-02-01T01:57:21;14.73;;;4.70;;
69847;SDS011;57143;55.940;37.496;2023-02-01T01:59:53;15.55;;;4.93;;
69847;SDS011;57143;55.940;37.496;2023-02-01T02:02:25;15.65;;;4.60;;
69847;SDS011;57143;55.940;37.496;2023-02-01T02:04:52;15.73;;;4.35;;
69847;SDS011;57143;55.940;37.496;2023-02-01T02:07:21;14.82;;;4.97;;
69847;SDS011;57143;55.940;37.496;2023-02-01T02:09:52;12.10;;;3.90;;
69847;SDS011;57143;55.940;37.496;2023-02-01T02:12:20;14.90;;;4.18;;
69847;SDS011;57143;55.940;37.496;2023-02-01T02:14:47;16.83;;;5.35;;
69847;SDS011;57143;55.940;37.496;2023-02-01T02:17:19;14.55;;;4.38;;
69847;SDS011;57143;55.940;37.496;2023-02-01T02:23:20;15.77;;;4.67;;
69847;SDS011;57143;55.940;37.496;2023-02-01T02:26:26;16.70;;;5.05;;
69847;SDS011;57143;55.940;37.496;2023-02-01T02:35:18;12.32;;;3.95;;
69847;SDS011;57143;55.940;37.496;2023-02-01T02:37:53;12.90;;;4.47;;
69847;SDS011;57143;55.940;37.496;2023-02-01T02:40:31;12.65;;;3.80;;
69847;SDS011;57143;55.940;37.496;2023-02-01T02:43:03;13.93;;;4.72;;
69847;SDS011;57143;55.940;37.496;2023-02-01T02:45:54;14.65;;;4.18;;
69847;SDS011;57143;55.940;37.496;2023-02-01T02:48:44;12.50;;;3.83;;
69847;SDS011;57143;55.940;37.496;2023-02-01T02:51:18;12.80;;;4.50;;
69847;SDS011;57143;55.940;37.496;2023-02-01T02:54:08;17.58;;;5.10;;
69847;SDS011;57143;55.940;37.496;2023-02-01T02:56:57;12.57;;;4.55;;
69847;SDS011;57143;55.940;37.496;2023-02-01T02:59:44;12.57;;;3.83;;
69847;SDS011;57143;55.940;37.496;2023-02-01T03:02:31;15.63;;;4.90;;
69847;SDS011;57143;55.940;37.496;2023-02-01T03:05:16;11.17;;;3.13;;
69847;SDS011;57143;55.940;37.496;2023-02-01T03:07:55;13.50;;;4.20;;
69847;SDS011;57143;55.940;37.496;2023-02-01T03:10:30;13.27;;;3.88;;
69847;SDS011;57143;55.940;37.496;2023-02-01T03:13:04;14.88;;;4.78;;
69847;SDS011;57143;55.940;37.496;2023-02-01T03:15:36;11.60;;;3.53;;
69847;SDS011;57143;55.940;37.496;2023-02-01T03:18:06;12.63;;;4.57;;
69847;SDS011;57143;55.940;37.496;2023-02-01T03:20:42;15.40;;;4.88;;
69847;SDS011;57143;55.940;37.496;2023-02-01T03:23:14;13.30;;;4.47;;
69847;SDS011;57143;55.940;37.496;2023-02-01T03:25:44;18.73;;;4.72;;
69847;SDS011;57143;55.940;37.496;2023-02-01T03:28:15;11.52;;;4.18;;
69847;SDS011;57143;55.940;37.496;2023-02-01T03:30:46;11.70;;;4.17;;
69847;SDS011;57143;55.940;37.496;2023-02-01T03:33:17;15.30;;;5.10;;
69847;SDS011;57143;55.940;37.496;2023-02-01T03:35:48;14.73;;;5.22;;
69847;SDS011;57143;55.940;37.496;2023-02-01T03:38:22;13.80;;;4.72;;
69847;SDS011;57143;55.940;37.496;2023-02-01T03:40:53;14.75;;;4.03;;
69847;SDS011;57143;55.940;37.496;2023-02-01T03:43:25;12.10;;;3.77;;
69847;SDS011;57143;55.940;37.496;2023-02-01T03:45:57;12.90;;;4.55;;
69847;SDS011;57143;55.940;37.496;2023-02-01T03:48:30;11.98;;;3.90;;
69847;SDS011;57143;55.940;37.496;2023-02-01T03:50:59;14.43;;;4.32;;
69847;SDS011;57143;55.940;37.496;2023-02-01T03:53:31;12.13;;;3.80;;
69847;SDS011;57143;55.940;37.496;2023-02-01T03:56:01;16.03;;;4.67;;
69847;SDS011;57143;55.940;37.496;2023-02-01T03:58:29;15.98;;;4.15;;
69847;SDS011;57143;55.940;37.496;2023-02-01T04:00:57;12.52;;;4.30;;
69847;SDS011;57143;55.940;37.496;2023-02-01T04:03:25;10.75;;;3.53;;
69847;SDS011;57143;55.940;37.496;2023-02-01T04:05:53;12.98;;;4.40;;
69847;SDS011;57143;55.940;37.496;2023-02-01T04:08:21;17.13;;;4.93;;
69847;SDS011;57143;55.940;37.496;2023-02-01T04:10:51;12.23;;;3.53;;
69847;SDS011;57143;55.940;37.496;2023-02-01T04:13:18;12.85;;;3.83;;
69847;SDS011;57143;55.940;37.496;2023-02-01T04:15:46;12.23;;;3.60;;
69847;SDS011;57143;55.940;37.496;2023-02-01T04:18:15;15.88;;;5.05;;
69847;SDS011;57143;55.940;37.496;2023-02-01T04:20:42;13.70;;;4.40;;
69847;SDS011;57143;55.940;37.496;2023-02-01T04:23:10;17.60;;;4.78;;
69847;SDS011;57143;55.940;37.496;2023-02-01T04:25:37;6.47;;;1.77;;
69847;SDS011;57143;55.940;37.496;2023-02-01T04:28:06;14.23;;;4.90;;
69847;SDS011;57143;55.940;37.496;2023-02-01T04:30:34;12.90;;;4.15;;
69847;SDS011;57143;55.940;37.496;2023-02-01T04:33:01;14.17;;;4.40;;
69847;SDS011;57143;55.940;37.496;2023-02-01T04:35:31;14.73;;;4.85;;
69847;SDS011;57143;55.940;37.496;2023-02-01T04:37:58;16.40;;;5.18;;
69847;SDS011;57143;55.940;37.496;2023-02-01T04:40:25;20.15;;;5.65;;
69847;SDS011;57143;55.940;37.496;2023-02-01T04:42:53;17.38;;;5.40;;
69847;SDS011;57143;55.940;37.496;2023-02-01T04:45:21;16.60;;;5.63;;
69847;SDS011;57143;55.940;37.496;2023-02-01T04:47:48;17.00;;;5.78;;
69847;SDS011;57143;55.940;37.496;2023-02-01T04:50:15;15.57;;;5.35;;
69847;SDS011;57143;55.940;37.496;2023-02-01T04:52:43;17.08;;;5.30;;
69847;SDS011;57143;55.940;37.496;2023-02-01T04:55:10;13.95;;;4.45;;
69847;SDS011;57143;55.940;37.496;2023-02-01T04:57:38;13.30;;;4.77;;
69847;SDS011;57143;55.940;37.496;2023-02-01T05:00:06;13.82;;;4.45;;
69847;SDS011;57143;55.940;37.496;2023-02-01T05:02:36;13.88;;;4.57;;
69847;SDS011;57143;55.940;37.496;2023-02-01T05:05:04;19.23;;;5.35;;
69847;SDS011;57143;55.940;37.496;2023-02-01T05:07:32;14.20;;;5.07;;
69847;SDS011;57143;55.940;37.496;2023-02-01T05:09:59;11.67;;;4.13;;
69847;SDS011;57143;55.940;37.496;2023-02-01T05:12:26;14.30;;;4.97;;
69847;SDS011;57143;55.940;37.496;2023-02-01T05:15:11;13.60;;;4.43;;
69847;SDS011;57143;55.940;37.496;2023-02-01T05:17:39;16.48;;;4.88;;
69847;SDS011;57143;55.940;37.496;2023-02-01T05:20:07;13.13;;;4.53;;
69847;SDS011;57143;55.940;37.496;2023-02-01T05:22:35;13.07;;;4.50;;
69847;SDS011;57143;55.940;37.496;2023-02-01T05:25:02;15.20;;;5.22;;
69847;SDS011;57143;55.940;37.496;2023-02-01T05:27:30;17.10;;;5.10;;
69847;SDS011;57143;55.940;37.496;2023-02-01T05:29:57;19.33;;;5.20;;
69847;SDS011;57143;55.940;37.496;2023-02-01T05:32:24;15.45;;;5.55;;
69847;SDS011;57143;55.940;37.496;2023-02-01T05:34:53;17.27;;;6.23;;
69847;SDS011;57143;55.940;37.496;2023-02-01T05:37:20;15.95;;;4.90;;
69847;SDS011;57143;55.940;37.496;2023-02-01T05:39:47;13.82;;;5.35;;
69847;SDS011;57143;55.940;37.496;2023-02-01T05:42:14;14.27;;;5.10;;
69847;SDS011;57143;55.940;37.496;2023-02-01T05:44:41;16.77;;;5.88;;
69847;SDS011;57143;55.940;37.496;2023-02-01T05:47:08;17.13;;;5.67;;
69847;SDS011;57143;55.940;37.496;2023-02-01T05:49:36;20.70;;;5.55;;
69847;SDS011;57143;55.940;37.496;2023-02-01T05:52:04;17.67;;;5.50;;
69847;SDS011;57143;55.940;37.496;2023-02-01T05:54:31;17.98;;;5.10;;
69847;SDS011;57143;55.940;37.496;2023-02-01T05:56:59;13.75;;;4.75;;
69847;SDS011;57143;55.940;37.496;2023-02-01T05:59:26;18.63;;;6.33;;
69847;SDS011;57143;55.940;37.496;2023-02-01T06:01:53;17.92;;;5.43;;
69847;SDS011;57143;55.940;37.496;2023-02-01T06:04:20;15.00;;;5.35;;
69847;SDS011;57143;55.940;37.496;2023-02-01T06:06:47;16.42;;;5.10;;
69847;SDS011;57143;55.940;37.496;2023-02-01T06:09:17;18.90;;;5.93;;
69847;SDS011;57143;55.940;37.496;2023-02-01T06:11:44;16.33;;;5.17;;
69847;SDS011;57143;55.940;37.496;2023-02-01T06:14:11;12.32;;;4.60;;
69847;SDS011;57143;55.940;37.496;2023-02-01T06:16:38;17.17;;;5.95;;
69847;SDS011;57143;55.940;37.496;2023-02-01T06:19:05;17.35;;;5.85;;
69847;SDS011;57143;55.940;37.496;2023-02-01T06:21:34;14.88;;;5.75;;
69847;SDS011;57143;55.940;37.496;2023-02-01T06:24:02;18.40;;;6.37;;
69847;SDS011;57143;55.940;37.496;2023-02-01T06:26:31;19.80;;;6.55;;
69847;SDS011;57143;55.940;37.496;2023-02-01T06:28:58;20.27;;;6.78;;
69847;SDS011;57143;55.940;37.496;2023-02-01T06:31:25;19.10;;;6.40;;
69847;SDS011;57143;55.940;37.496;2023-02-01T06:33:53;21.08;;;7.55;;
69847;SDS011;57143;55.940;37.496;2023-02-01T06:36:20;19.73;;;6.53;;
69847;SDS011;57143;55.940;37.496;2023-02-01T06:38:47;20.50;;;7.35;;
69847;SDS011;57143;55.940;37.496;2023-02-01T06:41:15;17.88;;;4.95;;
69847;SDS011;57143;55.940;37.496;2023-02-01T06:43:44;20.08;;;5.75;;
69847;SDS011;57143;55.940;37.496;2023-02-01T06:46:12;21.05;;;6.25;;
69847;SDS011;57143;55.940;37.496;2023-02-01T06:48:40;17.77;;;5.60;;
69847;SDS011;57143;55.940;37.496;2023-02-01T06:51:15;17.40;;;5.60;;
69847;SDS011;57143;55.940;37.496;2023-02-01T06:53:45;16.75;;;6.38;;
69847;SDS011;57143;55.940;37.496;2023-02-01T06:56:12;20.05;;;5.22;;
69847;SDS011;57143;55.940;37.496;2023-02-01T06:58:39;19.52;;;7.20;;
69847;SDS011;57143;55.940;37.496;2023-02-01T07:01:08;17.20;;;5.70;;
69847;SDS011;57143;55.940;37.496;2023-02-01T07:03:36;23.02;;;7.13;;
69847;SDS011;57143;55.940;37.496;2023-02-01T07:06:03;17.27;;;6.55;;
69847;SDS011;57143;55.940;37.496;2023-02-01T07:08:32;19.65;;;7.18;;
69847;SDS011;57143;55.940;37.496;2023-02-01T07:11:01;24.15;;;6.70;;
69847;SDS011;57143;55.940;37.496;2023-02-01T07:13:29;17.33;;;5.53;;
69847;SDS011;57143;55.940;37.496;2023-02-01T07:15:59;22.52;;;6.55;;
69847;SDS011;57143;55.940;37.496;2023-02-01T07:18:28;19.45;;;6.20;;
69847;SDS011;57143;55.940;37.496;2023-02-01T07:20:57;18.77;;;6.22;;
69847;SDS011;57143;55.940;37.496;2023-02-01T07:23:24;20.73;;;6.90;;
69847;SDS011;57143;55.940;37.496;2023-02-01T07:25:53;18.93;;;5.83;;
69847;SDS011;57143;55.940;37.496;2023-02-01T07:28:21;25.63;;;6.32;;
69847;SDS011;57143;55.940;37.496;2023-02-01T07:30:48;23.40;;;7.82;;
69847;SDS011;57143;55.940;37.496;2023-02-01T07:33:18;21.27;;;6.38;;
69847;SDS011;57143;55.940;37.496;2023-02-01T07:35:48;18.50;;;5.32;;
69847;SDS011;57143;55.940;37.496;2023-02-01T07:38:16;18.63;;;6.37;;
69847;SDS011;57143;55.940;37.496;2023-02-01T07:40:44;18.90;;;6.60;;
69847;SDS011;57143;55.940;37.496;2023-02-01T07:43:11;23.25;;;7.38;;
69847;SDS011;57143;55.940;37.496;2023-02-01T07:45:39;22.13;;;6.82;;
69847;SDS011;57143;55.940;37.496;2023-02-01T07:48:06;23.20;;;7.03;;
69847;SDS011;57143;55.940;37.496;2023-02-01T07:50:33;23.07;;;7.43;;
69847;SDS011;57143;55.940;37.496;2023-02-01T07:53:01;15.45;;;6.20;;
69847;SDS011;57143;55.940;37.496;2023-02-01T07:55:29;32.28;;;8.55;;
69847;SDS011;57143;55.940;37.496;2023-02-01T07:57:58;19.83;;;6.88;;
69847;SDS011;57143;55.940;37.496;2023-02-01T08:00:25;20.20;;;6.30;;
69847;SDS011;57143;55.940;37.496;2023-02-01T08:03:10;21.27;;;6.27;;
69847;SDS011;57143;55.940;37.496;2023-02-01T08:05:37;21.20;;;7.55;;
69847;SDS011;57143;55.940;37.496;2023-02-01T08:08:06;19.92;;;5.88;;
69847;SDS011;57143;55.940;37.496;2023-02-01T08:10:33;18.60;;;5.78;;
69847;SDS011;57143;55.940;37.496;2023-02-01T08:13:01;24.20;;;7.07;;
69847;SDS011;57143;55.940;37.496;2023-02-01T08:15:29;20.60;;;6.73;;
69847;SDS011;57143;55.940;37.496;2023-02-01T08:17:56;21.17;;;7.43;;
69847;SDS011;57143;55.940;37.496;2023-02-01T08:20:23;17.38;;;5.63;;
69847;SDS011;57143;55.940;37.496;2023-02-01T08:22:52;23.60;;;7.43;;
69847;SDS011;57143;55.940;37.496;2023-02-01T08:25:21;20.52;;;5.78;;
69847;SDS011;57143;55.940;37.496;2023-02-01T08:27:49;19.47;;;6.33;;
69847;SDS011;57143;55.940;37.496;2023-02-01T08:30:16;19.48;;;6.50;;
69847;SDS011;57143;55.940;37.496;2023-02-01T08:32:43;21.80;;;7.63;;
69847;SDS011;57143;55.940;37.496;2023-02-01T08:35:11;18.33;;;6.00;;
69847;SDS011;57143;55.940;37.496;2023-02-01T08:37:38;22.20;;;6.93;;
69847;SDS011;57143;55.940;37.496;2023-02-01T08:40:06;16.37;;;5.43;;
69847;SDS011;57143;55.940;37.496;2023-02-01T08:42:35;26.17;;;7.20;;
69847;SDS011;57143;55.940;37.496;2023-02-01T08:45:17;20.10;;;5.75;;
69847;SDS011;57143;55.940;37.496;2023-02-01T08:47:45;16.10;;;5.82;;
69847;SDS011;57143;55.940;37.496;2023-02-01T08:50:13;16.90;;;6.32;;
69847;SDS011;57143;55.940;37.496;2023-02-01T08:52:40;15.67;;;5.47;;
69847;SDS011;57143;55.940;37.496;2023-02-01T08:55:08;19.60;;;6.95;;
69847;SDS011;57143;55.940;37.496;2023-02-01T08:57:37;18.63;;;5.50;;
69847;SDS011;57143;55.940;37.496;2023-02-01T09:00:05;21.35;;;7.43;;
69847;SDS011;57143;55.940;37.496;2023-02-01T09:02:35;21.05;;;6.13;;
69847;SDS011;57143;55.940;37.496;2023-02-01T09:05:02;19.40;;;5.37;;
69847;SDS011;57143;55.940;37.496;2023-02-01T09:07:30;19.23;;;6.93;;
69847;SDS011;57143;55.940;37.496;2023-02-01T09:09:57;20.15;;;6.68;;
69847;SDS011;57143;55.940;37.496;2023-02-01T09:12:26;20.42;;;6.60;;
69847;SDS011;57143;55.940;37.496;2023-02-01T09:14:55;20.95;;;6.97;;
69847;SDS011;57143;55.940;37.496;2023-02-01T09:17:24;24.23;;;7.03;;
69847;SDS011;57143;55.940;37.496;2023-02-01T09:19:52;20.48;;;7.28;;
69847;SDS011;57143;55.940;37.496;2023-02-01T09:22:19;22.55;;;7.75;;
69847;SDS011;57143;55.940;37.496;2023-02-01T09:24:46;21.00;;;7.03;;
69847;SDS011;57143;55.940;37.496;2023-02-01T09:27:13;22.88;;;7.13;;
69847;SDS011;57143;55.940;37.496;2023-02-01T09:29:40;22.47;;;6.70;;
69847;SDS011;57143;55.940;37.496;2023-02-01T09:32:09;21.83;;;7.80;;
69847;SDS011;57143;55.940;37.496;2023-02-01T09:34:36;21.10;;;6.60;;
69847;SDS011;57143;55.940;37.496;2023-02-01T09:37:03;13.30;;;5.25;;
69847;SDS011;57143;55.940;37.496;2023-02-01T09:39:30;25.92;;;8.63;;
69847;SDS011;57143;55.940;37.496;2023-02-01T09:41:59;20.77;;;7.57;;
69847;SDS011;57143;55.940;37.496;2023-02-01T09:44:49;17.50;;;6.22;;
69847;SDS011;57143;55.940;37.496;2023-02-01T09:47:27;19.83;;;7.90;;
69847;SDS011;57143;55.940;37.496;2023-02-01T09:49:56;25.63;;;7.10;;
69847;SDS011;57143;55.940;37.496;2023-02-01T09:52:31;20.13;;;7.13;;
69847;SDS011;57143;55.940;37.496;2023-02-01T09:55:03;27.80;;;8.43;;
69847;SDS011;57143;55.940;37.496;2023-02-01T09:57:41;24.75;;;7.95;;
69847;SDS011;57143;55.940;37.496;2023-02-01T10:00:17;23.80;;;7.88;;
69847;SDS011;57143;55.940;37.496;2023-02-01T10:02:51;16.75;;;6.40;;
69847;SDS011;57143;55.940;37.496;2023-02-01T10:05:35;23.20;;;6.97;;
69847;SDS011;57143;55.940;37.496;2023-02-01T10:08:12;21.17;;;6.63;;
69847;SDS011;57143;55.940;37.496;2023-02-01T10:10:48;18.48;;;5.97;;
69847;SDS011;57143;55.940;37.496;2023-02-01T10:13:20;22.20;;;7.22;;
69847;SDS011;57143;55.940;37.496;2023-02-01T10:16:12;18.90;;;7.25;;
69847;SDS011;57143;55.940;37.496;2023-02-01T10:21:57;23.47;;;8.20;;
69847;SDS011;57143;55.940;37.496;2023-02-01T10:24:34;24.27;;;6.65;;
69847;SDS011;57143;55.940;37.496;2023-02-01T10:27:17;21.65;;;6.65;;
69847;SDS011;57143;55.940;37.496;2023-02-01T10:29:47;20.80;;;6.90;;
69847;SDS011;57143;55.940;37.496;2023-02-01T10:32:20;17.27;;;5.95;;
69847;SDS011;57143;55.940;37.496;2023-02-01T10:34:55;20.63;;;7.30;;
69847;SDS011;57143;55.940;37.496;2023-02-01T10:37:26;18.75;;;5.45;;
69847;SDS011;57143;55.940;37.496;2023-02-01T10:39:55;17.70;;;6.55;;
69847;SDS011;57143;55.940;37.496;2023-02-01T10:42:25;17.63;;;5.80;;
69847;SDS011;57143;55.940;37.496;2023-02-01T10:44:53;21.33;;;6.45;;
69847;SDS011;57143;55.940;37.496;2023-02-01T10:47:23;17.83;;;6.70;;
69847;SDS011;57143;55.940;37.496;2023-02-01T10:49:54;16.33;;;6.35;;
69847;SDS011;57143;55.940;37.496;2023-02-01T10:52:31;17.58;;;5.60;;
69847;SDS011;57143;55.940;37.496;2023-02-01T10:57:58;16.27;;;5.65;;
69847;SDS011;57143;55.940;37.496;2023-02-01T11:00:27;16.50;;;4.93;;
69847;SDS011;57143;55.940;37.496;2023-02-01T11:03:00;16.92;;;5.78;;
69847;SDS011;57143;55.940;37.496;2023-02-01T11:05:29;17.52;;;7.35;;
69847;SDS011;57143;55.940;37.496;2023-02-01T11:08:12;19.38;;;5.82;;
69847;SDS011;57143;55.940;37.496;2023-02-01T11:10:43;17.85;;;6.35;;
69847;SDS011;57143;55.940;37.496;2023-02-01T11:13:12;16.73;;;5.90;;
69847;SDS011;57143;55.940;37.496;2023-02-01T11:15:45;17.45;;;6.68;;
69847;SDS011;57143;55.940;37.496;2023-02-01T11:18:16;20.77;;;6.72;;
69847;SDS011;57143;55.940;37.496;2023-02-01T11:20:47;16.13;;;5.72;;
69847;SDS011;57143;55.940;37.496;2023-02-01T11:23:18;18.20;;;6.15;;
69847;SDS011;57143;55.940;37.496;2023-02-01T11:25:48;17.80;;;6.43;;
69847;SDS011;57143;55.940;37.496;2023-02-01T11:28:17;17.33;;;6.10;;
69847;SDS011;57143;55.940;37.496;2023-02-01T11:30:47;16.65;;;5.63;;
69847;SDS011;57143;55.940;37.496;2023-02-01T11:33:15;20.67;;;7.03;;
69847;SDS011;57143;55.940;37.496;2023-02-01T11:35:46;21.88;;;7.10;;
69847;SDS011;57143;55.940;37.496;2023-02-01T11:38:20;19.40;;;6.67;;
69847;SDS011;57143;55.940;37.496;2023-02-01T11:40:51;15.98;;;5.85;;
69847;SDS011;57143;55.940;37.496;2023-02-01T11:43:23;19.50;;;6.10;;
69847;SDS011;57143;55.940;37.496;2023-02-01T11:45:56;19.85;;;6.55;;
69847;SDS011;57143;55.940;37.496;2023-02-01T11:48:25;19.45;;;7.57;;
69847;SDS011;57143;55.940;37.496;2023-02-01T11:51:04;17.73;;;6.83;;
69847;SDS011;57143;55.940;37.496;2023-02-01T11:53:55;20.35;;;6.68;;
69847;SDS011;57143;55.940;37.496;2023-02-01T11:56:32;16.58;;;5.18;;
69847;SDS011;57143;55.940;37.496;2023-02-01T11:59:12;14.02;;;5.20;;
69847;SDS011;57143;55.940;37.496;2023-02-01T12:01:56;14.05;;;5.18;;
69847;SDS011;57143;55.940;37.496;2023-02-01T12:04:44;12.30;;;3.97;;
69847;SDS011;57143;55.940;37.496;2023-02-01T12:07:46;17.35;;;6.30;;
69847;SDS011;57143;55.940;37.496;2023-02-01T12:10:25;15.30;;;6.85;;
69847;SDS011;57143;55.940;37.496;2023-02-01T12:13:03;16.88;;;5.93;;
69847;SDS011;57143;55.940;37.496;2023-02-01T12:15:44;16.88;;;6.30;;
69847;SDS011;57143;55.940;37.496;2023-02-01T12:18:41;13.73;;;5.33;;
69847;SDS011;57143;55.940;37.496;2023-02-01T12:21:22;17.45;;;6.25;;
69847;SDS011;57143;55.940;37.496;2023-02-01T12:24:15;13.90;;;5.13;;
69847;SDS011;57143;55.940;37.496;2023-02-01T12:26:58;12.73;;;5.20;;
69847;SDS011;57143;55.940;37.496;2023-02-01T12:29:35;22.25;;;6.85;;
69847;SDS011;57143;55.940;37.496;2023-02-01T12:32:18;19.17;;;6.70;;
69847;SDS011;57143;55.940;37.496;2023-02-01T12:37:51;21.90;;;8.20;;
69847;SDS011;57143;55.940;37.496;2023-02-01T12:40:36;24.95;;;8.30;;
69847;SDS011;57143;55.940;37.496;2023-02-01T12:43:15;17.88;;;6.45;;
69847;SDS011;57143;55.940;37.496;2023-02-01T12:45:52;21.23;;;7.30;;
69847;SDS011;57143;55.940;37.496;2023-02-01T12:48:25;20.40;;;7.28;;
69847;SDS011;57143;55.940;37.496;2023-02-01T12:50:59;19.73;;;7.60;;
69847;SDS011;57143;55.940;37.496;2023-02-01T12:53:31;24.00;;;7.35;;
69847;SDS011;57143;55.940;37.496;2023-02-01T12:56:12;20.15;;;7.22;;
69847;SDS011;57143;55.940;37.496;2023-02-01T12:58:43;22.37;;;8.17;;
69847;SDS011;57143;55.940;37.496;2023-02-01T13:01:14;18.58;;;7.43;;
69847;SDS011;57143;55.940;37.496;2023-02-01T13:03:49;17.35;;;5.82;;
69847;SDS011;57143;55.940;37.496;2023-02-01T13:06:22;22.77;;;7.82;;
69847;SDS011;57143;55.940;37.496;2023-02-01T13:08:53;23.35;;;8.63;;
69847;SDS011;57143;55.940;37.496;2023-02-01T13:11:29;20.10;;;7.37;;
69847;SDS011;57143;55.940;37.496;2023-02-01T13:14:01;21.52;;;7.80;;
69847;SDS011;57143;55.940;37.496;2023-02-01T13:16:33;19.48;;;8.05;;
69847;SDS011;57143;55.940;37.496;2023-02-01T13:19:05;16.10;;;6.05;;
69847;SDS011;57143;55.940;37.496;2023-02-01T13:21:40;19.27;;;6.20;;
69847;SDS011;57143;55.940;37.496;2023-02-01T13:27:02;14.77;;;5.13;;
69847;SDS011;57143;55.940;37.496;2023-02-01T13:29:29;19.67;;;5.82;;
69847;SDS011;57143;55.940;37.496;2023-02-01T13:32:03;22.55;;;6.88;;
69847;SDS011;57143;55.940;37.496;2023-02-01T13:37:59;11.87;;;3.97;;
69847;SDS011;57143;55.940;37.496;2023-02-01T13:40:45;19.45;;;5.53;;
69847;SDS011;57143;55.940;37.496;2023-02-01T13:43:23;14.68;;;5.40;;
69847;SDS011;57143;55.940;37.496;2023-02-01T13:45:53;14.90;;;5.75;;
69847;SDS011;57143;55.940;37.496;2023-02-01T13:48:24;18.58;;;6.60;;
69847;SDS011;57143;55.940;37.496;2023-02-01T13:50:56;18.07;;;5.40;;
69847;SDS011;57143;55.940;37.496;2023-02-01T13:53:27;12.45;;;5.47;;
69847;SDS011;57143;55.940;37.496;2023-02-01T13:55:58;19.05;;;7.28;;
69847;SDS011;57143;55.940;37.496;2023-02-01T13:58:33;21.38;;;5.95;;
69847;SDS011;57143;55.940;37.496;2023-02-01T14:07:16;15.27;;;4.65;;
69847;SDS011;57143;55.940;37.496;2023-02-01T14:09:46;15.23;;;5.05;;
69847;SDS011;57143;55.940;37.496;2023-02-01T14:15:19;18.05;;;5.78;;
69847;SDS011;57143;55.940;37.496;2023-02-01T14:17:51;12.30;;;4.20;;
69847;SDS011;57143;55.940;37.496;2023-02-01T14:23:17;14.95;;;5.10;;
69847;SDS011;57143;55.940;37.496;2023-02-01T14:25:59;15.65;;;5.30;;
69847;SDS011;57143;55.940;37.496;2023-02-01T14:28:42;14.88;;;5.60;;
69847;SDS011;57143;55.940;37.496;2023-02-01T14:34:17;13.23;;;4.72;;
69847;SDS011;57143;55.940;37.496;2023-02-01T14:36:48;17.55;;;5.40;;
69847;SDS011;57143;55.940;37.496;2023-02-01T14:39:19;13.15;;;4.53;;
69847;SDS011;57143;55.940;37.496;2023-02-01T14:41:51;13.80;;;4.68;;
69847;SDS011;57143;55.940;37.496;2023-02-01T14:44:28;15.90;;;4.40;;
69847;SDS011;57143;55.940;37.496;2023-02-01T14:53:03;13.73;;;4.40;;
69847;SDS011;57143;55.940;37.496;2023-02-01T14:55:38;11.73;;;3.10;;
69847;SDS011;57143;55.940;37.496;2023-02-01T15:01:00;13.80;;;4.38;;
69847;SDS011;57143;55.940;37.496;2023-02-01T15:03:34;11.35;;;3.80;;
69847;SDS011;57143;55.940;37.496;2023-02-01T15:06:13;13.10;;;4.07;;
69847;SDS011;57143;55.940;37.496;2023-02-01T15:08:49;12.73;;;3.95;;
69847;SDS011;57143;55.940;37.496;2023-02-01T15:11:20;15.43;;;4.50;;
69847;SDS011;57143;55.940;37.496;2023-02-01T15:13:50;15.77;;;4.75;;
69847;SDS011;57143;55.940;37.496;2023-02-01T15:16:21;18.63;;;3.92;;
69847;SDS011;57143;55.940;37.496;2023-02-01T15:18:51;18.30;;;6.32;;
69847;SDS011;57143;55.940;37.496;2023-02-01T15:21:41;16.27;;;5.32;;
69847;SDS011;57143;55.940;37.496;2023-02-01T15:24:11;16.40;;;5.60;;
69847;SDS011;57143;55.940;37.496;2023-02-01T15:26:40;14.50;;;3.88;;
69847;SDS011;57143;55.940;37.496;2023-02-01T15:29:10;14.18;;;4.15;;
69847;SDS011;57143;55.940;37.496;2023-02-01T15:31:39;13.00;;;4.40;;
69847;SDS011;57143;55.940;37.496;2023-02-01T15:34:09;14.63;;;4.47;;